createdAt,value
2022-10-28T00:01:44.428Z,6.99
2022-10-28T00:04:13.882Z,7.02
2022-10-28T00:06:43.392Z,7.03
2022-10-28T00:09:12.876Z,7.04
2022-10-28T00:11:42.444Z,7.09
2022-10-28T00:14:13.702Z,7.10
2022-10-28T00:16:43.474Z,6.99
2022-10-28T00:19:13.914Z,6.92
2022-10-28T00:21:44.766Z,6.89
2022-10-28T00:24:15.370Z,6.96
2022-10-28T00:26:46.101Z,7.01
2022-10-28T00:29:17.310Z,6.99
2022-10-28T00:31:47.260Z,6.98
2022-10-28T00:34:21.377Z,6.87
2022-10-28T00:36:51.190Z,6.85
2022-10-28T00:39:22.178Z,6.92
2022-10-28T00:41:53.476Z,6.80
2022-10-28T00:44:41.504Z,6.70
2022-10-28T00:47:29.106Z,6.80
2022-10-28T00:50:00.746Z,6.75
2022-10-28T00:52:32.674Z,6.79
2022-10-28T00:55:04.174Z,6.75
2022-10-28T00:57:39.545Z,6.71
2022-10-28T01:00:09.677Z,6.60
2022-10-28T01:02:44.690Z,6.62
2022-10-28T01:05:16.008Z,6.71
2022-10-28T01:07:45.962Z,6.60
2022-10-28T01:10:16.557Z,6.74
2022-10-28T01:12:57.353Z,6.70
2022-10-28T01:15:32.581Z,6.68
2022-10-28T01:18:20.710Z,6.58
2022-10-28T01:20:59.127Z,6.61
2022-10-28T01:23:38.801Z,6.63
2022-10-28T01:26:26.918Z,6.53
2022-10-28T01:29:08.476Z,6.53
2022-10-28T01:31:49.798Z,6.54
2022-10-28T01:34:28.442Z,6.49
2022-10-28T01:37:06.238Z,6.48
2022-10-28T01:39:40.456Z,6.51
2022-10-28T01:42:10.044Z,6.38
2022-10-28T01:44:49.517Z,6.48
2022-10-28T01:47:28.779Z,6.53
2022-10-28T01:50:08.701Z,6.51
2022-10-28T01:52:40.357Z,6.47
2022-10-28T01:55:16.287Z,6.48
2022-10-28T01:57:46.262Z,6.46
2022-10-28T02:00:16.002Z,6.43
2022-10-28T02:02:45.721Z,6.53
2022-10-28T02:05:33.921Z,6.48
2022-10-28T02:08:06.542Z,6.33
2022-10-28T02:10:38.932Z,6.32
2022-10-28T02:13:12.383Z,6.35
2022-10-28T02:15:58.396Z,6.32
2022-10-28T02:18:45.023Z,6.32
2022-10-28T02:21:31.705Z,6.24
2022-10-28T02:24:21.406Z,6.29
2022-10-28T02:26:56.413Z,6.33
2022-10-28T02:29:40.648Z,6.38
2022-10-28T02:32:13.159Z,6.37
2022-10-28T02:34:45.066Z,6.40
2022-10-28T02:37:16.171Z,6.30
2022-10-28T02:39:49.258Z,6.35
2022-10-28T02:42:24.619Z,6.39
2022-10-28T02:44:59.869Z,6.40
2022-10-28T02:47:35.424Z,6.36
2022-10-28T02:50:10.246Z,6.35
2022-10-28T02:52:39.785Z,6.28
2022-10-28T02:55:09.615Z,6.31
2022-10-28T02:57:42.109Z,6.30
2022-10-28T03:00:13.251Z,6.28
2022-10-28T03:02:42.780Z,6.29
2022-10-28T03:05:12.425Z,6.24
2022-10-28T03:07:41.870Z,6.24
2022-10-28T03:10:11.773Z,6.31
2022-10-28T03:12:41.273Z,6.27
2022-10-28T03:15:11.414Z,6.27
2022-10-28T03:17:40.826Z,6.26
2022-10-28T03:20:10.890Z,6.18
2022-10-28T03:22:40.368Z,6.23
2022-10-28T03:25:10.078Z,6.20
2022-10-28T03:27:42.202Z,6.07
2022-10-28T03:30:11.830Z,6.16
2022-10-28T03:32:43.859Z,6.13
2022-10-28T03:35:13.598Z,6.10
2022-10-28T03:37:46.781Z,6.10
2022-10-28T03:40:16.718Z,6.02
2022-10-28T03:42:46.453Z,5.95
2022-10-28T03:45:15.929Z,5.99
2022-10-28T03:47:45.434Z,6.03
2022-10-28T03:50:14.868Z,6.04
2022-10-28T03:52:45.419Z,6.04
2022-10-28T03:55:15.111Z,6.10
2022-10-28T03:57:44.505Z,6.08
2022-10-28T04:00:14.225Z,6.00
2022-10-28T04:02:43.665Z,6.00
2022-10-28T04:05:13.302Z,5.99
2022-10-28T04:07:42.740Z,6.00
2022-10-28T04:10:12.458Z,5.99
2022-10-28T04:12:41.925Z,6.00
2022-10-28T04:15:11.570Z,6.08
2022-10-28T04:17:41.011Z,6.00
2022-10-28T04:20:10.996Z,5.96
2022-10-28T04:22:40.461Z,5.93
2022-10-28T04:25:10.119Z,5.96
2022-10-28T04:27:39.692Z,5.97
2022-10-28T04:30:12.466Z,6.01
2022-10-28T04:32:42.388Z,6.01
2022-10-28T04:35:12.622Z,5.95
2022-10-28T04:37:42.661Z,5.94
2022-10-28T04:40:12.272Z,5.94
2022-10-28T04:42:41.727Z,5.95
2022-10-28T04:45:11.726Z,5.95
2022-10-28T04:47:41.289Z,5.92
2022-10-28T04:50:10.967Z,5.88
2022-10-28T04:52:40.444Z,5.78
2022-10-28T04:55:10.108Z,5.88
2022-10-28T04:57:39.513Z,5.91
2022-10-28T05:00:09.186Z,5.85
2022-10-28T05:02:46.036Z,5.82
2022-10-28T05:07:47.059Z,5.77
2022-10-28T05:10:18.296Z,5.78
2022-10-28T05:12:48.579Z,5.82
2022-10-28T05:15:19.695Z,5.79
2022-10-28T05:17:50.609Z,5.86
2022-10-28T05:20:20.494Z,5.88
2022-10-28T05:22:55.026Z,5.90
2022-10-28T05:25:25.638Z,5.85
2022-10-28T05:27:55.444Z,5.91
2022-10-28T05:30:24.968Z,5.91
2022-10-28T05:32:55.374Z,5.89
2022-10-28T05:35:24.986Z,5.90
2022-10-28T05:37:54.458Z,5.92
2022-10-28T05:40:23.968Z,5.90
2022-10-28T05:42:53.750Z,5.96
2022-10-28T05:45:23.509Z,5.86
2022-10-28T05:47:53.253Z,5.74
2022-10-28T05:50:23.345Z,5.73
2022-10-28T05:52:54.209Z,5.79
2022-10-28T05:55:24.514Z,5.73
2022-10-28T05:57:55.829Z,5.73
2022-10-28T06:00:26.976Z,5.76
2022-10-28T06:02:56.768Z,5.79
2022-10-28T06:05:27.028Z,5.75
2022-10-28T06:07:56.515Z,5.75
2022-10-28T06:10:26.099Z,5.79
2022-10-28T06:12:56.073Z,5.85
2022-10-28T06:15:25.908Z,5.85
2022-10-28T06:17:55.383Z,5.93
2022-10-28T06:20:25.031Z,6.02
2022-10-28T06:22:55.750Z,6.01
2022-10-28T06:25:26.328Z,6.03
2022-10-28T06:27:55.915Z,6.03
2022-10-28T06:30:26.426Z,6.06
2022-10-28T06:32:59.074Z,6.08
2022-10-28T06:35:28.643Z,6.10
2022-10-28T06:37:58.636Z,6.10
